Buffalo Grove, Illinois
Current Conditions -  °F | °C
As of 11:52 PM on Friday 28 Nov 2014 (Local Time) from KPWK Reporting Station
Clear Clear  
Wind Chill: 24°   Ceiling: Unl
Heat Index: 32°   Visibility: 7mi
Dew Point: 28°   Wind: 9mph
Humidity: 85%   Direction: 170°S
Pressure: 29.89"   Gusts: NA
Location:  42.15°N, 87.97°W
Report Text: KPWK 290552Z AUTO 17008KT 7SM CLR 00/M02 A2989 RMK AO2 SLP129 T00001022 10011 20000 400111083 56019
Loading
Personal Weather Stations






























Interactive Weather Map New forecast layout! Learn more

10-Day Weather Forecast

Advertisements
Track Severe Weather on mobile